Hampden, MA (01036)

3:56 AM EDT on July 30, 2015 (GMT -0400)
East Longmeadow | | Change Station
CLOSE
Current Station
Personal Weather Station
Location: East Longmeadow, MA
Elevation: 255 ft
Nearby Weather Stations

Elev 255 ft 42.07 °N, 72.47 °W | Updated 11 minutes ago

Clear
Clear
68.7 °F
Feels Like 68.7 °F
N
0.0
Wind Variable Wind from South
Gusts 0.0 mph

Today
High -- | Low -- °F
--% Chance of Precip.
Yesterday
High -- | Low -- °F
Precip. -- in
5:40 AM 8:10 PM
Waxing Gibbous, 98% visible
Pressure 29.89 in
Visibility 2.5 miles
Clouds Clear
Dew Point 64 °F
Humidity 84%
Rainfall 0.00 in
Snow Depth Not available.
UV 0 out of 12
Pollen 7.20 out of 12
Air Quality Not available.
Flu Activity Not available.
SPECI KCEF 300748Z AUTO 13001KT 2 1/2SM BR CLR 18/18 A2989 RMK AO2 VIS 2 1/2V10

More Conditions Fewer Conditions

Pressure 29.89 in
Visibility 2.5 miles
Clouds Clear
Dew Point 64 °F
Humidity 84%
Rainfall 0.00 in
Snow Depth Not available.
UV 0 out of 12
Pollen 7.20 out of 12
Air Quality Not available.
Flu Activity Not available.
SPECI KCEF 300748Z AUTO 13001KT 2 1/2SM BR CLR 18/18 A2989 RMK AO2 VIS 2 1/2V10

More Conditions Fewer Conditions

10-Day Weather Forecast

×

Almanac

Astronomy

Jul. 30, 2015 Rise Set
Actual Time
Civil Twilight
Nautical Twilight
Astronomical Twilight
Moon
Length of Visible Light
Length of Day
Tomorrow will be .
, % of the Moon is Illuminated

Today's Extremes

State Highs State Lows

Community

WunderPhotos

Upload Photos

1,842,314 photos uploaded!

WunderBlogs® & News

Nearby

Air Quality

  Air Quality AQ Index Pollutant
Not available.

Snow Depth

Station Depth Elevation

Earthquake Activity

City Distance Mag. Time & Date
Minimum magnitude displayed is 2.5.

Coastal Water Temperatures

Place Temperature

Stations

Nearby Weather Stations

Station Location Temp. Windchill Dew Point Humidity Wind Precip. Elev Updated Type